Time;durP1;ratioP1;P1;durP2;ratioP2;P2;SDS_P1;SDS_P2;PMS_P1;PMS_P2;Temp;Humidity;BMP_temperature;BMP_pressure;BME280_temperature;BME280_humidity;BME280_pressure;Samples;Min_cycle;Max_cycle;Signal;HPM_P1;HPM_P2
2024/03/06 00:01:47;;;;;;;24.67;14.02;;;7.20;99.90;;;;;;5033713;28;20113;-40
2024/03/06 00:04:13;;;;;;;28.58;12.93;;;7.20;99.90;;;;;;5032167;28;20072;-38
2024/03/06 00:06:39;;;;;;;27.50;13.20;;;7.20;99.90;;;;;;5034267;28;20029;-55
2024/03/06 00:09:05;;;;;;;23.80;12.52;;;7.20;99.90;;;;;;5048695;28;20061;-53
2024/03/06 00:11:30;;;;;;;23.73;13.05;;;7.10;99.90;;;;;;5033345;28;20083;-54
2024/03/06 00:13:56;;;;;;;21.02;12.45;;;7.10;99.90;;;;;;5033431;28;20121;-57
2024/03/06 00:16:21;;;;;;;21.27;11.50;;;7.20;99.90;;;;;;5032496;28;20394;-55
2024/03/06 00:18:47;;;;;;;23.25;12.43;;;7.20;99.90;;;;;;5033668;28;20092;-54
2024/03/06 00:21:13;;;;;;;25.52;12.65;;;7.20;99.90;;;;;;5032165;28;20037;-55
2024/03/06 00:23:39;;;;;;;24.02;13.00;;;7.30;99.90;;;;;;5034034;28;20029;-52
2024/03/06 00:26:04;;;;;;;27.23;12.65;;;7.30;99.90;;;;;;5033064;28;20083;-55
2024/03/06 00:28:30;;;;;;;22.13;13.43;;;7.30;99.90;;;;;;5031801;28;20029;-54
2024/03/06 00:30:56;;;;;;;24.33;12.65;;;7.40;99.90;;;;;;5032773;28;20032;-55
2024/03/06 00:33:23;;;;;;;30.08;14.18;;;7.40;99.90;;;;;;5032789;28;20129;-55
2024/03/06 00:35:48;;;;;;;23.13;12.98;;;7.40;99.90;;;;;;5033775;28;20534;-55
2024/03/06 00:38:14;;;;;;;23.73;12.85;;;7.30;99.90;;;;;;5033239;28;20109;-55
2024/03/06 00:40:40;;;;;;;25.58;13.95;;;7.40;99.90;;;;;;5049188;28;20029;-54
2024/03/06 00:43:05;;;;;;;24.70;12.75;;;7.40;99.90;;;;;;5052725;28;20025;-58
2024/03/06 00:45:31;;;;;;;30.67;13.75;;;7.50;99.90;;;;;;5052624;28;20086;-60
2024/03/06 00:47:57;;;;;;;26.05;12.65;;;7.50;99.90;;;;;;5052506;28;20036;-57
2024/03/06 00:50:23;;;;;;;22.83;12.55;;;7.60;99.90;;;;;;5052701;28;20452;-54
2024/03/06 00:52:49;;;;;;;39.22;15.00;;;7.60;99.90;;;;;;5052537;28;20104;-55
2024/03/06 00:55:15;;;;;;;25.05;13.25;;;7.60;99.90;;;;;;5052506;28;20055;-56
2024/03/06 00:57:41;;;;;;;26.27;13.63;;;7.60;99.90;;;;;;5035921;28;20078;-40
2024/03/06 01:00:13;;;;;;;27.77;14.80;;;7.60;99.90;;;;;;5032763;28;20033;-39
2024/03/06 01:02:40;;;;;;;46.25;20.00;;;7.70;99.90;;;;;;5031650;28;20060;-40
2024/03/06 01:05:09;;;;;;;36.30;18.67;;;7.70;99.90;;;;;;5032430;28;20486;-40
2024/03/06 01:07:37;;;;;;;30.70;14.82;;;7.80;99.90;;;;;;5032256;28;20112;-44
2024/03/06 01:10:06;;;;;;;32.28;13.38;;;7.80;99.90;;;;;;5032196;28;20029;-39
2024/03/06 01:12:32;;;;;;;26.23;12.63;;;7.80;99.90;;;;;;5032494;28;20025;-41
2024/03/06 01:14:58;;;;;;;23.63;12.38;;;7.80;99.90;;;;;;5032917;28;20025;-40
2024/03/06 01:17:23;;;;;;;22.75;11.65;;;7.70;99.90;;;;;;5032298;28;20032;-40
2024/03/06 01:19:49;;;;;;;22.67;12.73;;;7.70;99.90;;;;;;5032584;28;20083;-40
2024/03/06 01:22:15;;;;;;;26.25;13.57;;;7.60;99.90;;;;;;5031281;28;20021;-42
2024/03/06 01:24:41;;;;;;;27.90;13.18;;;7.50;99.90;;;;;;5032242;28;20029;-41
2024/03/06 01:27:08;;;;;;;24.58;12.13;;;7.50;99.90;;;;;;5033520;28;20096;-40
2024/03/06 01:29:34;;;;;;;27.02;12.55;;;7.50;99.90;;;;;;5036254;28;20026;-56
2024/03/06 01:32:01;;;;;;;26.55;13.40;;;7.50;99.90;;;;;;5041290;28;20018;-55
2024/03/06 01:34:27;;;;;;;26.30;12.23;;;7.60;99.90;;;;;;5036122;28;20567;-55
2024/03/06 01:36:53;;;;;;;24.02;12.52;;;7.60;99.90;;;;;;5036202;28;20014;-40
2024/03/06 01:39:19;;;;;;;23.02;12.85;;;7.60;99.90;;;;;;5036254;28;20092;-44
2024/03/06 01:41:46;;;;;;;23.48;13.32;;;7.60;99.90;;;;;;5036082;28;20038;-39
2024/03/06 01:44:12;;;;;;;18.77;8.85;;;7.60;99.90;;;;;;5036130;28;20371;-39
2024/03/06 01:46:38;;;;;;;30.27;13.30;;;7.60;99.90;;;;;;5036732;28;20029;-38
2024/03/06 01:49:04;;;;;;;27.27;14.57;;;7.70;99.90;;;;;;5036151;28;20151;-37
2024/03/06 01:51:30;;;;;;;28.33;13.23;;;7.80;99.90;;;;;;5036172;28;20367;-38
2024/03/06 01:53:57;;;;;;;24.05;12.60;;;7.90;99.90;;;;;;5036158;28;20575;-39
2024/03/06 01:56:23;;;;;;;27.42;13.63;;;7.90;99.90;;;;;;5035859;28;20022;-37
2024/03/06 01:58:49;;;;;;;25.77;14.23;;;7.90;99.90;;;;;;5035776;28;20024;-43
2024/03/06 02:01:16;;;;;;;31.63;13.30;;;7.80;99.90;;;;;;5034867;28;20032;-39
2024/03/06 02:03:42;;;;;;;29.73;14.73;;;7.80;99.90;;;;;;5035288;28;20026;-49
2024/03/06 02:06:11;;;;;;;26.35;13.48;;;7.80;99.90;;;;;;5035193;28;20029;-54
2024/03/06 02:08:37;;;;;;;24.83;13.13;;;7.80;99.90;;;;;;5035829;28;20025;-54
2024/03/06 02:11:03;;;;;;;26.85;12.55;;;7.80;99.90;;;;;;5035499;28;20364;-54
2024/03/06 02:13:29;;;;;;;25.27;13.60;;;7.80;99.90;;;;;;5035537;28;20026;-54
2024/03/06 02:15:55;;;;;;;26.55;13.60;;;7.80;99.90;;;;;;5035516;28;20028;-54
2024/03/06 02:18:21;;;;;;;25.60;13.60;;;7.90;99.90;;;;;;5034244;28;20025;-54
2024/03/06 02:20:47;;;;;;;27.23;11.95;;;7.80;99.90;;;;;;5035943;28;20071;-56
2024/03/06 02:23:14;;;;;;;31.40;15.32;;;7.90;99.90;;;;;;5035461;28;20030;-39
2024/03/06 02:25:41;;;;;;;28.70;13.70;;;7.90;99.90;;;;;;5035640;28;20063;-54
2024/03/06 02:28:06;;;;;;;23.67;13.55;;;7.90;99.90;;;;;;5035178;28;20032;-54
2024/03/06 02:30:36;;;;;;;31.70;15.13;;;7.90;99.90;;;;;;5035008;28;20029;-55
2024/03/06 02:33:03;;;;;;;27.00;13.27;;;7.80;99.90;;;;;;5035137;28;20045;-52
2024/03/06 02:35:30;;;;;;;27.40;13.45;;;7.80;99.90;;;;;;5035153;28;20026;-54
2024/03/06 02:37:56;;;;;;;28.13;13.15;;;7.80;99.90;;;;;;5036709;28;20025;-51
2024/03/06 02:40:22;;;;;;;33.25;14.00;;;7.70;99.90;;;;;;5054357;28;20481;-52
2024/03/06 02:42:48;;;;;;;29.35;13.40;;;7.60;99.90;;;;;;5054985;28;20118;-38
2024/03/06 02:45:13;;;;;;;28.17;14.02;;;7.50;99.90;;;;;;5055116;28;20033;-40
2024/03/06 02:47:39;;;;;;;32.60;14.57;;;7.50;99.90;;;;;;5054796;28;20478;-38
2024/03/06 02:50:07;;;;;;;32.35;14.52;;;7.50;99.90;;;;;;5054679;28;20112;-40
2024/03/06 02:52:33;;;;;;;33.47;14.50;;;7.60;99.90;;;;;;5054994;28;20040;-40
2024/03/06 02:54:59;;;;;;;31.90;14.85;;;7.70;99.90;;;;;;5051947;28;20470;-38
2024/03/06 02:57:28;;;;;;;29.38;14.75;;;7.80;99.90;;;;;;5034617;28;20096;-39
2024/03/06 02:59:56;;;;;;;30.80;14.50;;;7.70;99.90;;;;;;5034671;28;20489;-40
2024/03/06 03:02:22;;;;;;;31.58;15.00;;;7.80;99.90;;;;;;5034719;28;20474;-40
2024/03/06 03:04:47;;;;;;;31.35;13.73;;;7.80;99.90;;;;;;5034596;28;20052;-37
2024/03/06 03:07:13;;;;;;;30.58;13.95;;;7.80;99.90;;;;;;5034524;28;20112;-42
2024/03/06 03:09:39;;;;;;;28.65;14.23;;;7.70;99.90;;;;;;5034427;28;20022;-38
2024/03/06 03:12:05;;;;;;;32.83;14.50;;;7.70;99.90;;;;;;5034948;28;20022;-44
2024/03/06 03:14:32;;;;;;;34.03;14.68;;;7.70;99.90;;;;;;5034467;28;20021;-38
2024/03/06 03:16:59;;;;;;;31.77;14.57;;;7.60;99.90;;;;;;5034325;28;20024;-38
2024/03/06 03:19:24;;;;;;;30.05;14.15;;;7.70;99.90;;;;;;5034556;28;20492;-40
2024/03/06 03:21:50;;;;;;;26.33;14.68;;;7.70;99.90;;;;;;5034318;28;20109;-38
2024/03/06 03:24:16;;;;;;;32.35;16.20;;;7.70;99.90;;;;;;5034221;28;20040;-38
2024/03/06 03:26:42;;;;;;;25.73;14.05;;;7.70;99.90;;;;;;5034550;28;20030;-38
2024/03/06 03:29:07;;;;;;;30.77;14.77;;;7.60;99.90;;;;;;5035020;28;20518;-38
2024/03/06 03:31:33;;;;;;;32.35;14.55;;;7.70;99.90;;;;;;5034047;28;20368;-38
2024/03/06 03:33:59;;;;;;;27.27;14.25;;;7.70;99.90;;;;;;5033814;28;20049;-38
2024/03/06 03:36:25;;;;;;;33.03;15.40;;;7.60;99.90;;;;;;5034245;28;20024;-38
2024/03/06 03:38:54;;;;;;;34.83;15.40;;;7.70;99.90;;;;;;5034178;28;20021;-38
2024/03/06 03:41:19;;;;;;;26.30;14.13;;;7.80;99.90;;;;;;5034121;28;20021;-38
2024/03/06 03:43:49;;;;;;;28.63;14.60;;;7.70;99.90;;;;;;5034065;28;20029;-38
2024/03/06 03:46:14;;;;;;;30.98;15.65;;;7.60;99.90;;;;;;5038247;28;20021;-38
2024/03/06 03:48:40;;;;;;;26.45;14.30;;;7.60;99.90;;;;;;5053611;28;20155;-37
2024/03/06 03:51:06;;;;;;;29.75;16.23;;;7.60;99.90;;;;;;5052096;28;20191;-38
2024/03/06 03:53:33;;;;;;;32.08;15.13;;;7.60;99.90;;;;;;5053601;28;20099;-54
2024/03/06 03:56:03;;;;;;;27.92;14.07;;;7.60;99.90;;;;;;5053531;28;20021;-54
2024/03/06 03:58:28;;;;;;;41.58;16.10;;;7.70;99.90;;;;;;5052244;28;20444;-54
2024/03/06 04:00:55;;;;;;;28.80;14.90;;;7.70;99.90;;;;;;5052469;28;20029;-53
2024/03/06 04:03:21;;;;;;;33.15;16.20;;;7.70;99.90;;;;;;5038789;28;20533;-54
2024/03/06 04:05:48;;;;;;;24.48;12.95;;;7.70;99.90;;;;;;5053305;28;20087;-54
2024/03/06 04:08:14;;;;;;;29.27;14.68;;;7.60;99.90;;;;;;5053614;28;20083;-51
2024/03/06 04:10:41;;;;;;;32.00;17.63;;;7.60;99.90;;;;;;5053120;28;20462;-56
2024/03/06 04:13:07;;;;;;;28.58;14.63;;;7.60;99.90;;;;;;5053242;28;20029;-49
2024/03/06 04:15:33;;;;;;;31.95;15.55;;;7.50;99.90;;;;;;5053481;28;20367;-54
2024/03/06 04:17:58;;;;;;;32.13;15.88;;;7.60;99.90;;;;;;5053055;28;20032;-38
2024/03/06 04:20:24;;;;;;;32.92;15.65;;;7.60;99.90;;;;;;5052563;28;20025;-42
2024/03/06 04:22:51;;;;;;;38.22;15.82;;;7.60;99.90;;;;;;5053019;28;20052;-39
2024/03/06 04:25:17;;;;;;;37.85;16.00;;;7.60;99.90;;;;;;5051722;28;20424;-41
2024/03/06 04:27:43;;;;;;;37.17;16.13;;;7.60;99.90;;;;;;5053288;28;20052;-38
2024/03/06 04:30:09;;;;;;;31.55;15.77;;;7.60;99.90;;;;;;5052813;28;20029;-40
2024/03/06 04:32:35;;;;;;;25.95;14.93;;;7.60;99.90;;;;;;5033845;28;20033;-39
2024/03/06 04:35:00;;;;;;;28.52;15.25;;;7.40;99.90;;;;;;5032970;28;20024;-41
2024/03/06 04:37:30;;;;;;;34.42;15.80;;;7.40;99.90;;;;;;5033453;28;20029;-40
2024/03/06 04:39:56;;;;;;;32.80;15.40;;;7.40;99.90;;;;;;5033086;28;20470;-40
2024/03/06 04:42:21;;;;;;;35.00;16.08;;;7.30;99.90;;;;;;5032908;28;20022;-52
2024/03/06 04:44:47;;;;;;;34.63;15.85;;;7.30;99.90;;;;;;5033030;28;20385;-55
2024/03/06 04:47:13;;;;;;;33.03;14.57;;;7.30;99.90;;;;;;5038329;28;20017;-54
2024/03/06 04:49:38;;;;;;;35.10;16.70;;;7.30;99.90;;;;;;5051252;28;20032;-52
2024/03/06 04:52:04;;;;;;;34.58;16.15;;;7.30;99.90;;;;;;5052517;28;20421;-59
2024/03/06 04:54:30;;;;;;;30.27;15.70;;;7.30;99.90;;;;;;5051825;28;20500;-58
2024/03/06 04:56:56;;;;;;;36.80;17.15;;;7.30;99.90;;;;;;5051194;28;20025;-53
2024/03/06 04:59:22;;;;;;;33.85;17.67;;;7.20;99.90;;;;;;5051199;28;20017;-55
2024/03/06 05:01:47;;;;;;;33.90;15.80;;;7.20;99.90;;;;;;5052138;28;20025;-55
2024/03/06 05:04:13;;;;;;;31.38;15.48;;;7.10;99.90;;;;;;5052338;28;20056;-55
2024/03/06 05:06:39;;;;;;;30.08;16.42;;;7.00;99.90;;;;;;5052381;28;20033;-47
2024/03/06 05:09:05;;;;;;;36.28;16.95;;;7.00;99.90;;;;;;5052319;28;20064;-54
2024/03/06 05:11:31;;;;;;;33.30;15.82;;;7.00;99.90;;;;;;5051399;28;20029;-54
2024/03/06 05:14:00;;;;;;;34.45;15.13;;;6.90;99.90;;;;;;5052496;28;20013;-54
2024/03/06 05:16:26;;;;;;;32.08;15.48;;;6.80;99.90;;;;;;5052593;28;20029;-53
2024/03/06 05:18:52;;;;;;;32.65;16.20;;;6.80;99.90;;;;;;5052498;28;20533;-54
2024/03/06 05:21:19;;;;;;;34.30;17.00;;;6.70;99.90;;;;;;5052457;28;20516;-58
2024/03/06 05:23:45;;;;;;;33.40;16.50;;;6.70;99.90;;;;;;5050795;28;20027;-54
2024/03/06 05:26:11;;;;;;;35.72;16.42;;;6.70;99.90;;;;;;5052298;28;20021;-55
2024/03/06 05:28:36;;;;;;;38.30;18.13;;;6.60;99.90;;;;;;5051307;28;20029;-54
2024/03/06 05:31:19;;;;;;;37.85;17.67;;;6.50;99.90;;;;;;5045940;28;20036;-54
2024/03/06 05:33:47;;;;;;;30.35;15.98;;;6.50;99.90;;;;;;5031972;28;20041;-53
2024/03/06 05:36:17;;;;;;;38.25;18.30;;;6.50;99.90;;;;;;5032117;28;20037;-54
2024/03/06 05:38:43;;;;;;;35.63;17.20;;;6.40;99.90;;;;;;5032079;28;20018;-54
2024/03/06 05:41:09;;;;;;;35.50;16.75;;;6.40;99.90;;;;;;5032129;28;20052;-56
2024/03/06 05:43:35;;;;;;;35.30;17.50;;;6.40;99.90;;;;;;5032073;28;20096;-51
2024/03/06 05:46:00;;;;;;;46.92;19.08;;;6.40;99.90;;;;;;5032665;28;20025;-38
2024/03/06 05:48:26;;;;;;;38.63;18.15;;;6.40;99.90;;;;;;5047602;28;20029;-42
2024/03/06 05:50:55;;;;;;;33.58;17.25;;;6.40;99.90;;;;;;5051788;28;20397;-38
2024/03/06 05:53:21;;;;;;;42.95;18.35;;;6.50;99.90;;;;;;5052251;28;20473;-58
2024/03/06 05:55:46;;;;;;;39.78;18.95;;;6.50;99.90;;;;;;5050483;28;20113;-54
2024/03/06 05:58:12;;;;;;;43.75;18.73;;;6.60;99.90;;;;;;5051860;28;20492;-52
2024/03/06 06:00:39;;;;;;;40.83;17.25;;;6.70;99.90;;;;;;5051818;28;20025;-39
2024/03/06 06:03:04;;;;;;;38.65;18.58;;;6.70;99.90;;;;;;5040197;28;20032;-39
2024/03/06 06:05:30;;;;;;;39.65;18.80;;;6.60;99.90;;;;;;5031892;28;20537;-39
2024/03/06 06:07:56;;;;;;;33.13;17.83;;;6.40;99.90;;;;;;5031799;28;20029;-37
2024/03/06 06:10:21;;;;;;;36.90;16.38;;;6.40;99.90;;;;;;5031752;28;20041;-36
2024/03/06 06:12:47;;;;;;;41.95;17.20;;;6.50;99.90;;;;;;5032700;28;20033;-38
2024/03/06 06:15:13;;;;;;;40.15;18.80;;;6.50;99.90;;;;;;5035801;28;20018;-39
2024/03/06 06:17:39;;;;;;;39.78;16.48;;;6.40;99.90;;;;;;5035481;28;20497;-46
2024/03/06 06:20:13;;;;;;;35.60;17.48;;;6.40;99.90;;;;;;5034630;28;20499;-38
2024/03/06 06:22:39;;;;;;;32.20;16.25;;;6.50;99.90;;;;;;5035695;28;20572;-38
2024/03/06 06:25:07;;;;;;;39.97;17.15;;;6.50;99.90;;;;;;5035623;28;20069;-37
2024/03/06 06:27:33;;;;;;;36.97;16.48;;;6.50;99.90;;;;;;5035496;28;20498;-44
2024/03/06 06:29:59;;;;;;;30.23;16.25;;;6.50;99.90;;;;;;5035513;28;20134;-52
2024/03/06 06:32:24;;;;;;;33.25;16.73;;;6.50;99.90;;;;;;5035115;28;20486;-55
2024/03/06 06:34:51;;;;;;;35.97;16.95;;;6.40;99.90;;;;;;5035217;28;20017;-55
2024/03/06 06:37:18;;;;;;;39.58;15.98;;;6.40;99.90;;;;;;5048446;28;20492;-55
2024/03/06 06:39:43;;;;;;;33.67;16.45;;;6.40;99.90;;;;;;5053668;28;20104;-53
2024/03/06 06:42:10;;;;;;;32.42;16.95;;;6.30;99.90;;;;;;5055255;28;20065;-54
2024/03/06 06:44:36;;;;;;;39.97;17.38;;;6.20;99.90;;;;;;5053550;28;20099;-54
2024/03/06 06:47:02;;;;;;;32.53;16.52;;;6.30;99.90;;;;;;5053448;28;20060;-57
2024/03/06 06:49:28;;;;;;;37.17;15.13;;;6.30;99.90;;;;;;5054792;28;20025;-55
2024/03/06 06:51:54;;;;;;;38.33;17.33;;;6.30;99.90;;;;;;5054997;28;20366;-52
2024/03/06 06:54:19;;;;;;;36.70;17.83;;;6.30;99.90;;;;;;5040805;28;20026;-54
2024/03/06 06:56:45;;;;;;;43.15;16.58;;;6.30;99.90;;;;;;5034806;28;20026;-55
2024/03/06 06:59:13;;;;;;;39.78;16.52;;;6.30;99.90;;;;;;5034818;28;20385;-58
2024/03/06 07:01:41;;;;;;;38.03;17.25;;;6.30;99.90;;;;;;5034832;28;20026;-56
2024/03/06 07:04:07;;;;;;;43.40;18.67;;;6.30;99.90;;;;;;5034539;28;20069;-55
2024/03/06 07:06:33;;;;;;;36.25;16.48;;;6.30;99.90;;;;;;5033682;28;20065;-53
2024/03/06 07:08:58;;;;;;;42.08;16.85;;;6.30;99.90;;;;;;5034602;28;20074;-56
2024/03/06 07:11:25;;;;;;;37.75;16.08;;;6.40;99.90;;;;;;5048667;28;20500;-51
2024/03/06 07:13:51;;;;;;;38.50;16.52;;;6.40;99.90;;;;;;5054648;28;20113;-54
2024/03/06 07:16:17;;;;;;;38.10;18.02;;;6.40;99.90;;;;;;5053223;28;20032;-54
2024/03/06 07:18:42;;;;;;;41.63;19.10;;;6.40;99.90;;;;;;5054515;28;20025;-56
2024/03/06 07:21:08;;;;;;;39.70;17.00;;;6.40;99.90;;;;;;5054279;28;20506;-53
2024/03/06 07:23:34;;;;;;;38.80;17.80;;;6.40;99.90;;;;;;5054515;28;20108;-53
2024/03/06 07:26:00;;;;;;;45.20;18.23;;;6.40;99.90;;;;;;5053778;28;20612;-54
2024/03/06 07:28:25;;;;;;;45.97;20.80;;;6.40;99.90;;;;;;5053407;28;20031;-54
2024/03/06 07:30:52;;;;;;;39.60;19.58;;;6.50;99.90;;;;;;5048995;28;20026;-50
2024/03/06 07:33:18;;;;;;;34.70;17.88;;;6.70;99.90;;;;;;5034006;28;20258;-53
2024/03/06 07:35:43;;;;;;;38.00;18.85;;;6.90;99.90;;;;;;5034233;28;20060;-57
2024/03/06 07:38:09;;;;;;;37.85;18.40;;;6.90;99.90;;;;;;5033092;28;20021;-51
2024/03/06 07:40:35;;;;;;;37.83;17.83;;;7.00;99.90;;;;;;5033965;28;20087;-54
2024/03/06 07:43:00;;;;;;;30.17;17.05;;;7.10;99.90;;;;;;5033941;28;20478;-55
2024/03/06 07:45:27;;;;;;;34.50;16.55;;;7.10;99.90;;;;;;5034664;28;20071;-54
2024/03/06 07:47:52;;;;;;;30.45;16.67;;;7.10;99.90;;;;;;5045139;28;20044;-53
2024/03/06 07:50:18;;;;;;;34.05;17.20;;;7.00;99.90;;;;;;5053809;28;20029;-54
2024/03/06 07:52:47;;;;;;;34.05;17.35;;;7.00;99.90;;;;;;5053863;28;20032;-54
2024/03/06 07:55:13;;;;;;;35.28;16.17;;;7.00;99.90;;;;;;5053636;28;20079;-54
2024/03/06 07:57:39;;;;;;;32.35;17.73;;;6.90;99.90;;;;;;5053485;28;20405;-54
2024/03/06 08:00:14;;;;;;;34.25;16.08;;;7.00;99.90;;;;;;5053475;28;20482;-54
2024/03/06 08:02:42;;;;;;;33.42;16.50;;;7.10;99.90;;;;;;5037105;28;20049;-57
2024/03/06 08:05:14;;;;;;;38.67;17.77;;;7.30;99.90;;;;;;5033675;28;20084;-54
2024/03/06 08:07:44;;;;;;;33.53;17.58;;;7.30;99.90;;;;;;5033474;28;20076;-54
2024/03/06 08:10:13;;;;;;;37.33;20.52;;;7.40;99.90;;;;;;5033613;28;20039;-61
2024/03/06 08:12:41;;;;;;;95.80;62.83;;;7.40;99.90;;;;;;5033382;28;20471;-54
2024/03/06 08:15:09;;;;;;;27.38;15.27;;;7.60;99.90;;;;;;5033863;28;20470;-53
2024/03/06 08:17:35;;;;;;;37.75;17.88;;;7.60;99.90;;;;;;5033534;28;20308;-54
2024/03/06 08:20:05;;;;;;;40.33;19.27;;;7.60;99.90;;;;;;5032354;28;20022;-53
2024/03/06 08:22:31;;;;;;;34.55;17.05;;;7.70;99.90;;;;;;5033280;28;20434;-49
2024/03/06 08:24:57;;;;;;;35.47;18.15;;;7.80;99.90;;;;;;5033307;28;20041;-53
2024/03/06 08:27:22;;;;;;;32.35;17.23;;;7.90;99.90;;;;;;5033007;28;20025;-49
2024/03/06 08:29:48;;;;;;;33.55;16.80;;;8.00;99.90;;;;;;5032991;28;20473;-54
2024/03/06 08:32:14;;;;;;;31.27;17.25;;;8.20;99.90;;;;;;5032702;28;20036;-54
2024/03/06 08:34:39;;;;;;;30.08;16.25;;;8.20;99.90;;;;;;5033118;28;20104;-54
2024/03/06 08:37:06;;;;;;;37.97;17.52;;;8.20;99.90;;;;;;5051772;28;20021;-54
2024/03/06 08:39:32;;;;;;;30.55;16.23;;;8.30;99.90;;;;;;5053043;28;20519;-54
2024/03/06 08:41:58;;;;;;;31.10;16.17;;;8.30;99.90;;;;;;5053060;28;20025;-54
2024/03/06 08:44:23;;;;;;;33.58;16.27;;;8.20;99.90;;;;;;5052987;28;20039;-50
2024/03/06 08:46:49;;;;;;;36.05;17.83;;;8.30;99.90;;;;;;5052529;28;20081;-55
2024/03/06 08:49:15;;;;;;;28.77;15.07;;;8.30;99.90;;;;;;5052465;28;20033;-54
2024/03/06 08:51:40;;;;;;;38.92;17.88;;;8.30;99.90;;;;;;5052125;28;20542;-54
2024/03/06 08:54:07;;;;;;;37.55;17.33;;;8.30;99.90;;;;;;5032573;28;20029;-55
2024/03/06 08:56:34;;;;;;;34.47;17.42;;;8.40;99.90;;;;;;5031251;28;20457;-54
2024/03/06 08:58:59;;;;;;;32.55;17.33;;;8.50;99.90;;;;;;5031258;28;20489;-53
2024/03/06 09:01:25;;;;;;;38.72;17.42;;;8.40;99.90;;;;;;5032502;28;20025;-52
2024/03/06 09:03:51;;;;;;;34.78;16.88;;;8.40;99.90;;;;;;5032467;28;20021;-54
2024/03/06 09:06:17;;;;;;;32.25;16.98;;;8.40;99.90;;;;;;5032682;28;20086;-55
2024/03/06 09:08:42;;;;;;;33.50;16.73;;;8.50;99.90;;;;;;5033014;28;20032;-55
2024/03/06 09:11:08;;;;;;;29.58;15.23;;;8.60;99.90;;;;;;5032270;28;20055;-52
2024/03/06 09:13:33;;;;;;;30.50;16.00;;;8.70;99.90;;;;;;5032350;28;20557;-54
2024/03/06 09:15:59;;;;;;;35.13;16.58;;;8.80;99.90;;;;;;5032306;28;20021;-54
2024/03/06 09:18:25;;;;;;;35.35;15.95;;;8.80;99.90;;;;;;5032313;28;20363;-52
2024/03/06 09:20:50;;;;;;;29.63;15.32;;;8.90;99.90;;;;;;5032291;28;20525;-53
2024/03/06 09:23:16;;;;;;;27.88;15.30;;;9.00;99.90;;;;;;5032317;28;20379;-54
2024/03/06 09:25:42;;;;;;;34.17;16.98;;;9.10;99.90;;;;;;5034776;28;20029;-54
2024/03/06 09:28:08;;;;;;;28.70;16.42;;;9.20;99.90;;;;;;5043038;28;20486;-54
2024/03/06 09:30:34;;;;;;;30.58;15.38;;;9.10;99.90;;;;;;5032128;28;20067;-52
2024/03/06 09:33:00;;;;;;;31.92;16.60;;;9.20;99.90;;;;;;5046598;28;20045;-53
2024/03/06 09:35:25;;;;;;;28.75;15.73;;;9.20;99.90;;;;;;5052282;28;20088;-53
2024/03/06 09:37:51;;;;;;;29.50;16.23;;;9.30;99.90;;;;;;5052298;28;20067;-50
2024/03/06 09:40:24;;;;;;;36.58;15.48;;;9.40;99.90;;;;;;5051990;28;20029;-54
2024/03/06 09:42:51;;;;;;;26.52;15.18;;;9.60;99.90;;;;;;5050547;28;20070;-57
2024/03/06 09:45:18;;;;;;;28.88;14.65;;;9.70;99.90;;;;;;5047504;28;20037;-53
2024/03/06 09:47:46;;;;;;;29.17;14.48;;;9.80;99.90;;;;;;5052808;28;20021;-55
2024/03/06 09:50:20;;;;;;;27.63;14.60;;;9.80;99.90;;;;;;5055884;28;20029;-62
2024/03/06 09:52:48;;;;;;;29.17;14.95;;;9.90;99.90;;;;;;5054696;28;20462;-53
2024/03/06 09:55:15;;;;;;;24.92;14.30;;;9.90;99.90;;;;;;5055875;28;20554;-54
2024/03/06 09:57:40;;;;;;;30.33;14.50;;;9.80;99.90;;;;;;5055646;28;20470;-54
2024/03/06 10:00:07;;;;;;;25.63;14.85;;;9.90;99.90;;;;;;5042587;28;20040;-53
2024/03/06 10:02:41;;;;;;;26.50;15.23;;;9.90;99.90;;;;;;5056016;28;20021;-54
2024/03/06 10:05:21;;;;;;;28.13;14.15;;;10.00;99.90;;;;;;5055994;28;20496;-52
2024/03/06 10:07:47;;;;;;;25.65;15.00;;;10.00;99.90;;;;;;5055567;28;20037;-58
2024/03/06 10:10:13;;;;;;;27.58;14.88;;;10.10;99.90;;;;;;5055395;28;20061;-56
2024/03/06 10:12:39;;;;;;;26.38;14.23;;;10.10;99.90;;;;;;5055521;28;20029;-53
2024/03/06 10:15:06;;;;;;;23.83;14.23;;;10.30;99.90;;;;;;5055605;28;20025;-54
2024/03/06 10:17:31;;;;;;;28.67;15.90;;;10.30;99.90;;;;;;5051625;28;20021;-54
2024/03/06 10:20:01;;;;;;;26.50;14.50;;;10.30;99.90;;;;;;5051175;28;20029;-51
2024/03/06 10:22:27;;;;;;;33.88;16.00;;;10.20;99.90;;;;;;5043442;28;20513;-52
2024/03/06 10:24:56;;;;;;;28.95;15.40;;;10.20;99.90;;;;;;5043882;28;20106;-54
2024/03/06 10:27:22;;;;;;;34.92;15.95;;;10.20;99.90;;;;;;5050745;28;20159;-54
2024/03/06 10:30:01;;;;;;;30.50;15.32;;;10.10;99.90;;;;;;5043081;28;20079;-54
2024/03/06 10:32:27;;;;;;;26.98;15.02;;;10.10;99.90;;;;;;5047268;28;20474;-39
2024/03/06 10:34:52;;;;;;;32.33;16.83;;;10.20;99.90;;;;;;5046345;28;20021;-39
2024/03/06 10:37:21;;;;;;;28.30;15.13;;;10.20;99.90;;;;;;5040102;28;20028;-37
2024/03/06 10:39:54;;;;;;;26.77;15.07;;;10.30;99.90;;;;;;5035344;28;20520;-41
2024/03/06 10:42:21;;;;;;;24.88;13.85;;;10.30;99.90;;;;;;5035345;28;20124;-54
2024/03/06 10:44:55;;;;;;;32.10;15.93;;;10.30;99.90;;;;;;5035035;28;20029;-54
2024/03/06 10:47:22;;;;;;;33.55;15.90;;;10.30;99.90;;;;;;5035002;28;20079;-52
2024/03/06 10:49:48;;;;;;;31.35;15.88;;;10.30;99.90;;;;;;5035085;28;20481;-52
2024/03/06 10:52:16;;;;;;;31.77;15.52;;;10.30;99.90;;;;;;5047634;28;20037;-50
2024/03/06 10:54:43;;;;;;;;;;;10.50;99.90;;;;;;5055469;28;20036;-54
2024/03/06 10:57:10;;;;;;;27.77;13.82;;;10.50;99.90;;;;;;5053386;28;19912;-54
2024/03/06 10:59:36;;;;;;;27.03;15.80;;;10.60;99.90;;;;;;5054010;28;20526;-54
2024/03/06 11:02:02;;;;;;;30.27;15.82;;;10.70;99.90;;;;;;5054568;28;20033;-55
2024/03/06 11:04:30;;;;;;;29.00;14.85;;;10.80;99.90;;;;;;5050218;28;20682;-52
2024/03/06 11:06:56;;;;;;;42.42;15.85;;;10.90;99.90;;;;;;5046383;28;20028;-54
2024/03/06 11:09:23;;;;;;;25.33;14.32;;;10.90;99.90;;;;;;5040218;28;20052;-54
2024/03/06 11:11:53;;;;;;;25.38;12.77;;;11.10;99.90;;;;;;5053280;28;20542;-50
2024/03/06 11:14:21;;;;;;;21.92;13.88;;;11.10;99.90;;;;;;5020102;28;20082;-51
2024/03/06 11:17:01;;;;;;;24.40;13.50;;;11.00;99.90;;;;;;5054338;28;20477;-54
2024/03/06 11:19:29;;;;;;;28.92;14.20;;;10.90;99.90;;;;;;5054532;28;20052;-54
2024/03/06 11:21:55;;;;;;;27.65;13.02;;;11.00;99.90;;;;;;5052691;28;20094;-53
2024/03/06 11:24:32;;;;;;;24.90;13.27;;;11.10;99.90;;;;;;5033171;28;20025;-52
2024/03/06 11:27:00;;;;;;;22.35;13.75;;;11.20;99.90;;;;;;5038191;28;20482;-54
2024/03/06 11:29:48;;;;;;;26.85;14.68;;;11.20;99.90;;;;;;5034404;28;20048;-54
2024/03/06 11:32:13;;;;;;;24.75;12.65;;;11.30;99.90;;;;;;5042512;28;20558;-54
2024/03/06 11:34:39;;;;;;;25.55;13.15;;;11.30;99.90;;;;;;5053846;28;20135;-54
2024/03/06 11:37:09;;;;;;;25.73;13.57;;;11.40;99.90;;;;;;5052395;28;20187;-54
2024/03/06 11:39:40;;;;;;;25.13;13.25;;;11.50;99.90;;;;;;5054270;28;20508;-51
2024/03/06 11:42:08;;;;;;;25.92;12.35;;;11.70;99.90;;;;;;5049940;28;20035;-53
2024/03/06 11:44:34;;;;;;;20.63;11.48;;;11.80;99.90;;;;;;5033920;28;20033;-54
2024/03/06 11:47:05;;;;;;;22.90;12.52;;;12.00;99.90;;;;;;5034059;28;20026;-55
2024/03/06 11:49:36;;;;;;;23.55;12.10;;;12.00;99.90;;;;;;5033795;28;20029;-50
2024/03/06 11:52:05;;;;;;;25.00;12.10;;;12.10;99.90;;;;;;5044471;28;20029;-54
2024/03/06 11:54:31;;;;;;;22.95;11.15;;;12.30;99.90;;;;;;5044000;28;20029;-53
2024/03/06 11:56:59;;;;;;;23.10;11.80;;;12.40;99.90;;;;;;5053854;28;20051;-53
2024/03/06 11:59:34;;;;;;;22.98;12.52;;;12.50;99.90;;;;;;5035509;28;20036;-61
2024/03/06 12:02:02;;;;;;;25.58;11.23;;;12.50;99.90;;;;;;5033632;28;20029;-49
2024/03/06 12:04:29;;;;;;;19.20;9.82;;;12.50;99.90;;;;;;5033764;28;20053;-53
2024/03/06 12:07:08;;;;;;;20.60;10.90;;;12.60;99.90;;;;;;5033414;28;20486;-53
2024/03/06 12:09:35;;;;;;;23.50;11.85;;;12.70;99.90;;;;;;5033554;28;20033;-54
2024/03/06 12:12:02;;;;;;;19.27;9.32;;;12.80;99.90;;;;;;5033212;28;20044;-50
2024/03/06 12:14:27;;;;;;;17.77;9.75;;;12.90;99.90;;;;;;5032076;28;20041;-52
2024/03/06 12:17:00;;;;;;;20.33;10.52;;;12.90;99.90;;;;;;5032478;28;20095;-53
2024/03/06 12:19:31;;;;;;;22.52;12.00;;;12.90;99.90;;;;;;5033184;28;20034;-53
2024/03/06 12:22:01;;;;;;;16.80;10.40;;;12.80;99.90;;;;;;5033158;28;20038;-54
2024/03/06 12:24:27;;;;;;;24.60;11.40;;;12.60;99.90;;;;;;5033258;28;20033;-54
2024/03/06 12:27:03;;;;;;;19.27;10.57;;;12.60;99.90;;;;;;5033123;28;20505;-52
2024/03/06 12:29:32;;;;;;;20.25;10.75;;;12.80;99.90;;;;;;5051862;28;20565;-54
2024/03/06 12:31:59;;;;;;;20.95;11.05;;;12.90;99.90;;;;;;5038896;28;20124;-56
2024/03/06 12:34:25;;;;;;;23.30;11.80;;;12.90;99.90;;;;;;5033369;28;20179;-54